createdAt,value
2018-10-19T00:00:40.465Z,0.70
2018-10-19T00:03:14.501Z,0.80
2018-10-19T00:05:48.547Z,0.83
2018-10-19T00:11:01.392Z,0.80
2018-10-19T00:13:35.368Z,0.80
2018-10-19T00:16:09.443Z,0.93
2018-10-19T00:18:43.167Z,1.07
2018-10-19T00:21:17.862Z,0.70
2018-10-19T00:23:51.830Z,0.70
2018-10-19T00:26:25.632Z,0.67
2018-10-19T00:28:59.876Z,0.60
2018-10-19T00:31:33.844Z,0.90
2018-10-19T00:34:13.541Z,0.77
2018-10-19T00:36:47.623Z,0.83
2018-10-19T00:39:21.641Z,0.73
2018-10-19T00:41:55.909Z,0.93
2018-10-19T00:44:29.945Z,1.00
2018-10-19T00:47:06.090Z,0.83
2018-10-19T00:49:40.095Z,0.80
2018-10-19T00:52:14.229Z,0.90
2018-10-19T00:54:48.465Z,1.00
2018-10-19T00:57:23.140Z,0.80
2018-10-19T01:00:00.585Z,0.60
2018-10-19T01:02:34.501Z,1.00
2018-10-19T01:05:08.740Z,0.70
2018-10-19T01:07:42.768Z,0.80
2018-10-19T01:10:23.521Z,1.00
2018-10-19T01:12:59.006Z,0.80
2018-10-19T01:15:33.046Z,0.90
2018-10-19T01:18:07.008Z,0.73
2018-10-19T01:20:41.163Z,0.70
2018-10-19T01:23:15.289Z,0.80
2018-10-19T01:25:49.298Z,0.70
2018-10-19T01:28:23.277Z,0.60
2018-10-19T01:30:57.216Z,1.20
2018-10-19T01:33:31.289Z,0.80
2018-10-19T01:36:06.595Z,0.97
2018-10-19T01:38:40.658Z,0.90
2018-10-19T01:41:14.926Z,0.90
2018-10-19T01:43:49.310Z,0.90
2018-10-19T01:46:23.717Z,0.93
2018-10-19T01:49:07.463Z,0.77
2018-10-19T01:51:45.022Z,1.37
2018-10-19T01:54:19.421Z,1.20
2018-10-19T01:56:53.630Z,0.77
2018-10-19T01:59:27.551Z,0.83
2018-10-19T02:02:03.980Z,1.00
2018-10-19T02:04:38.130Z,0.83
2018-10-19T02:07:12.411Z,0.80
2018-10-19T02:09:46.436Z,0.57
2018-10-19T02:12:20.572Z,0.73
2018-10-19T02:14:54.713Z,1.20
2018-10-19T02:17:28.864Z,0.90
2018-10-19T02:20:02.700Z,1.00
2018-10-19T02:22:36.690Z,0.80
2018-10-19T02:25:10.610Z,1.07
2018-10-19T02:27:44.786Z,0.93
2018-10-19T02:30:18.956Z,0.90
2018-10-19T02:32:52.924Z,1.20
2018-10-19T02:35:26.650Z,1.43
2018-10-19T02:38:00.582Z,0.90
2018-10-19T02:40:34.639Z,1.17
2018-10-19T02:43:08.565Z,1.00
2018-10-19T02:45:43.218Z,1.00
2018-10-19T02:48:17.197Z,0.93
2018-10-19T02:50:52.314Z,0.80
2018-10-19T02:53:30.283Z,0.90
2018-10-19T02:56:04.543Z,1.20
2018-10-19T02:58:39.949Z,1.33
2018-10-19T03:01:15.755Z,1.40
2018-10-19T03:03:49.959Z,2.87
2018-10-19T03:06:24.063Z,2.67
2018-10-19T03:08:58.064Z,2.77
2018-10-19T03:14:10.914Z,1.90
2018-10-19T03:16:44.905Z,2.17
2018-10-19T03:19:18.900Z,1.63
2018-10-19T03:21:53.219Z,1.57
2018-10-19T03:24:27.575Z,1.60
2018-10-19T03:27:01.943Z,1.10
2018-10-19T03:29:36.035Z,1.17
2018-10-19T03:32:09.927Z,1.53
2018-10-19T03:34:50.174Z,1.30
2018-10-19T03:37:24.846Z,1.20
2018-10-19T03:39:58.830Z,1.40
2018-10-19T03:42:33.672Z,1.30
2018-10-19T03:45:12.447Z,1.10
2018-10-19T03:47:46.753Z,1.13
2018-10-19T03:50:20.716Z,1.00
2018-10-19T03:53:00.270Z,1.10
2018-10-19T03:55:34.868Z,1.10
2018-10-19T03:58:09.079Z,0.97
2018-10-19T04:00:42.857Z,0.70
2018-10-19T04:03:17.084Z,1.00
2018-10-19T04:05:51.257Z,0.60
2018-10-19T04:08:25.124Z,0.63
2018-10-19T04:10:59.224Z,0.60
2018-10-19T04:13:33.159Z,0.60
2018-10-19T04:16:07.181Z,0.77
2018-10-19T04:21:18.467Z,1.20
2018-10-19T04:23:52.412Z,1.20
2018-10-19T04:26:26.312Z,1.00
2018-10-19T04:29:00.124Z,0.70
2018-10-19T04:31:33.928Z,0.90
2018-10-19T04:34:07.718Z,0.90
2018-10-19T04:36:41.708Z,0.67
2018-10-19T04:39:15.672Z,0.80
2018-10-19T04:41:49.541Z,0.93
2018-10-19T04:44:23.493Z,0.67
2018-10-19T04:46:57.686Z,0.90
2018-10-19T04:49:31.585Z,1.23
2018-10-19T04:52:05.589Z,1.13
2018-10-19T04:54:39.486Z,1.27
2018-10-19T04:57:13.422Z,1.33
2018-10-19T04:59:47.094Z,1.30
2018-10-19T05:02:20.968Z,1.07
2018-10-19T05:04:54.808Z,1.40
2018-10-19T05:07:28.540Z,1.10
2018-10-19T05:10:02.379Z,0.80
2018-10-19T05:12:36.361Z,0.80
2018-10-19T05:15:11.047Z,1.23
2018-10-19T05:17:44.742Z,0.97
2018-10-19T05:20:18.728Z,1.20
2018-10-19T05:22:52.672Z,0.97
2018-10-19T05:25:26.465Z,1.37
2018-10-19T05:28:00.372Z,1.20
2018-10-19T05:30:34.324Z,1.40
2018-10-19T05:33:08.350Z,1.17
2018-10-19T05:35:42.353Z,1.40
2018-10-19T05:38:16.104Z,0.90
2018-10-19T05:40:49.970Z,1.10
2018-10-19T05:43:23.958Z,1.23
2018-10-19T05:45:58.382Z,1.20
2018-10-19T05:48:32.342Z,1.30
2018-10-19T05:51:06.632Z,1.30
2018-10-19T05:53:40.692Z,1.40
2018-10-19T05:56:14.673Z,1.30
2018-10-19T05:58:48.569Z,1.00
2018-10-19T06:01:22.398Z,0.93
2018-10-19T06:03:56.302Z,1.00
2018-10-19T06:06:34.162Z,1.20
2018-10-19T06:09:09.314Z,1.97
2018-10-19T06:11:43.320Z,1.93
2018-10-19T06:14:17.465Z,1.37
2018-10-19T06:16:51.476Z,1.23
2018-10-19T06:19:26.321Z,1.50
2018-10-19T06:22:00.256Z,1.53
2018-10-19T06:24:34.302Z,1.80
2018-10-19T06:27:08.465Z,1.40
2018-10-19T06:29:42.430Z,1.37
2018-10-19T06:32:16.360Z,1.20
2018-10-19T06:34:50.526Z,1.60
2018-10-19T06:37:24.520Z,1.70
2018-10-19T06:39:58.599Z,1.20
2018-10-19T06:42:32.706Z,1.07
2018-10-19T06:45:07.121Z,1.17
2018-10-19T06:47:41.178Z,1.17
2018-10-19T06:50:15.141Z,1.00
2018-10-19T06:52:49.111Z,1.57
2018-10-19T06:55:23.038Z,1.10
2018-10-19T06:57:56.765Z,1.20
2018-10-19T07:00:30.479Z,0.93
2018-10-19T07:03:04.515Z,0.80
2018-10-19T07:05:38.406Z,0.80
2018-10-19T07:08:12.303Z,0.80
2018-10-19T07:10:46.178Z,0.97
2018-10-19T07:13:19.954Z,1.00
2018-10-19T07:15:54.130Z,0.80
2018-10-19T07:18:27.971Z,1.13
2018-10-19T07:21:01.886Z,3.53
2018-10-19T07:23:35.642Z,1.10
2018-10-19T07:26:09.636Z,0.80
2018-10-19T07:28:43.471Z,0.87
2018-10-19T07:31:17.421Z,1.07
2018-10-19T07:33:51.714Z,0.90
2018-10-19T07:36:25.499Z,0.73
2018-10-19T07:38:59.310Z,0.57
2018-10-19T07:41:33.198Z,1.07
2018-10-19T07:44:07.180Z,0.90
2018-10-19T07:46:41.115Z,0.90
2018-10-19T07:49:15.057Z,0.80
2018-10-19T07:51:48.971Z,1.13
2018-10-19T07:54:22.824Z,1.60
2018-10-19T07:56:56.786Z,1.43
2018-10-19T07:59:30.709Z,1.70
2018-10-19T08:02:05.089Z,0.70
2018-10-19T08:04:38.874Z,0.80
2018-10-19T08:07:12.817Z,1.60
2018-10-19T08:09:46.799Z,1.50
2018-10-19T08:12:20.912Z,1.03
2018-10-19T08:14:54.728Z,0.80
2018-10-19T08:17:28.815Z,0.97
2018-10-19T08:20:02.841Z,1.00
2018-10-19T08:22:36.715Z,1.10
2018-10-19T08:25:10.640Z,0.83
2018-10-19T08:27:44.531Z,0.87
2018-10-19T08:30:18.328Z,0.60
2018-10-19T08:32:52.192Z,0.80
2018-10-19T08:35:26.020Z,0.70
2018-10-19T08:37:59.815Z,0.70
2018-10-19T08:40:33.885Z,0.80
2018-10-19T08:43:07.787Z,1.00
2018-10-19T08:45:41.664Z,1.10
2018-10-19T08:48:15.616Z,1.07
2018-10-19T08:50:49.358Z,1.00
2018-10-19T08:53:23.301Z,0.83
2018-10-19T08:55:57.239Z,1.10
2018-10-19T08:58:31.439Z,0.97
2018-10-19T09:01:05.510Z,0.70
2018-10-19T09:03:39.366Z,1.00
2018-10-19T09:06:13.489Z,0.70
2018-10-19T09:08:47.223Z,1.00
2018-10-19T09:11:21.489Z,0.80
2018-10-19T09:13:55.249Z,0.90
2018-10-19T09:16:29.235Z,0.83
2018-10-19T09:19:02.975Z,0.90
2018-10-19T09:21:36.763Z,0.70
2018-10-19T09:24:10.793Z,0.73
2018-10-19T09:26:45.009Z,0.53
2018-10-19T09:29:18.959Z,1.37
2018-10-19T09:31:52.730Z,1.23
2018-10-19T09:34:26.632Z,0.90
2018-10-19T09:37:00.518Z,0.97
2018-10-19T09:39:34.279Z,1.00
2018-10-19T09:42:08.583Z,0.70
2018-10-19T09:44:42.534Z,0.77
2018-10-19T09:47:16.727Z,0.70
2018-10-19T09:49:50.536Z,0.83
2018-10-19T09:52:24.309Z,0.83
2018-10-19T09:54:58.320Z,0.70
2018-10-19T09:57:32.248Z,0.70
2018-10-19T10:00:08.657Z,1.00
2018-10-19T10:02:42.304Z,0.77
2018-10-19T10:05:16.284Z,1.07
2018-10-19T10:07:50.136Z,0.73
2018-10-19T10:10:23.952Z,0.83
2018-10-19T10:12:57.757Z,0.90
2018-10-19T10:15:31.900Z,1.40
2018-10-19T10:18:05.754Z,0.90
2018-10-19T10:20:39.759Z,0.60
2018-10-19T10:23:13.468Z,0.77
2018-10-19T10:25:47.139Z,0.73
2018-10-19T10:28:21.101Z,0.70
2018-10-19T10:30:55.083Z,0.60
2018-10-19T10:33:28.770Z,0.77
2018-10-19T10:36:02.729Z,0.80
2018-10-19T10:38:36.533Z,0.53
2018-10-19T10:41:10.413Z,0.40
2018-10-19T10:43:44.233Z,0.50
2018-10-19T10:46:18.125Z,0.50
2018-10-19T10:48:51.972Z,0.53
2018-10-19T10:51:25.986Z,0.40
2018-10-19T10:53:59.770Z,0.50
2018-10-19T10:56:33.556Z,0.53
2018-10-19T10:59:07.562Z,0.60
2018-10-19T11:01:41.295Z,0.60
2018-10-19T11:04:15.105Z,0.50
2018-10-19T11:06:49.092Z,0.53
2018-10-19T11:09:22.922Z,0.40
2018-10-19T11:11:56.942Z,0.33
2018-10-19T11:14:30.661Z,0.90
2018-10-19T11:17:04.577Z,4.07
2018-10-19T11:19:38.500Z,1.40
2018-10-19T11:22:12.386Z,0.70
2018-10-19T11:24:46.562Z,0.60
2018-10-19T11:27:20.465Z,0.33
2018-10-19T11:29:54.265Z,0.40
2018-10-19T11:32:28.120Z,0.50
2018-10-19T11:35:01.840Z,0.40
2018-10-19T11:37:35.759Z,0.50
2018-10-19T11:40:21.811Z,0.30
2018-10-19T11:42:56.286Z,7.67
2018-10-19T11:45:31.380Z,0.87
2018-10-19T11:48:05.365Z,1.10
2018-10-19T11:50:39.227Z,0.50
2018-10-19T11:53:13.204Z,0.57
2018-10-19T11:55:46.869Z,0.67
2018-10-19T11:58:20.752Z,0.50
2018-10-19T12:00:54.649Z,0.73
2018-10-19T12:03:28.452Z,0.47
2018-10-19T12:06:02.289Z,0.43
2018-10-19T12:08:36.166Z,0.47
2018-10-19T12:11:10.162Z,0.50
2018-10-19T12:13:43.956Z,0.60
2018-10-19T12:16:17.878Z,0.60
2018-10-19T12:18:51.726Z,0.47
2018-10-19T12:21:25.504Z,0.50
2018-10-19T12:23:59.218Z,0.47
2018-10-19T12:26:33.034Z,0.40
2018-10-19T12:29:06.887Z,0.23
2018-10-19T12:31:40.726Z,0.40
2018-10-19T12:34:14.658Z,0.40
2018-10-19T12:36:48.464Z,0.90
2018-10-19T12:39:22.309Z,0.90
2018-10-19T12:41:55.965Z,0.90
2018-10-19T12:44:29.962Z,0.50
2018-10-19T12:47:09.258Z,0.60
2018-10-19T12:49:43.833Z,2.17
2018-10-19T12:52:17.769Z,3.00
2018-10-19T12:54:51.693Z,0.70
2018-10-19T12:57:25.599Z,0.50
2018-10-19T12:59:59.254Z,0.30
2018-10-19T13:02:33.185Z,0.50
2018-10-19T13:05:07.167Z,0.60
2018-10-19T13:07:41.078Z,0.40
2018-10-19T13:10:14.820Z,0.50
2018-10-19T13:12:48.694Z,0.40
2018-10-19T13:15:22.543Z,0.40
2018-10-19T13:17:56.436Z,0.60
2018-10-19T13:20:30.334Z,0.57
2018-10-19T13:25:45.323Z,0.47
2018-10-19T13:28:19.072Z,0.40
2018-10-19T13:30:53.068Z,0.50
2018-10-19T13:33:26.818Z,0.50
2018-10-19T13:36:00.743Z,0.60
2018-10-19T13:38:34.529Z,0.40
2018-10-19T13:41:08.400Z,0.40
2018-10-19T13:43:42.958Z,0.20
2018-10-19T13:46:16.912Z,0.53
2018-10-19T13:48:50.783Z,0.47
2018-10-19T13:51:24.603Z,0.47
2018-10-19T13:53:58.379Z,0.40
2018-10-19T13:56:32.762Z,2.93
2018-10-19T13:59:06.802Z,0.63
2018-10-19T14:01:40.584Z,0.40
2018-10-19T14:04:14.546Z,0.30
2018-10-19T14:06:48.374Z,0.40
2018-10-19T14:09:22.459Z,0.60
2018-10-19T14:11:56.301Z,0.50
2018-10-19T14:14:30.180Z,0.30
2018-10-19T14:17:04.151Z,0.50
2018-10-19T14:19:37.986Z,0.50
2018-10-19T14:22:11.886Z,0.23
2018-10-19T14:24:46.759Z,0.40
2018-10-19T14:27:20.596Z,0.50
2018-10-19T14:29:54.528Z,0.40
2018-10-19T14:32:28.572Z,0.40
2018-10-19T14:35:02.538Z,0.50
2018-10-19T14:37:37.505Z,0.47
2018-10-19T14:40:12.673Z,0.47
2018-10-19T14:42:46.708Z,0.40
2018-10-19T14:45:20.633Z,0.40
2018-10-19T14:50:41.130Z,0.43
2018-10-19T14:53:15.184Z,0.50
2018-10-19T14:56:20.259Z,0.60
2018-10-19T14:58:54.430Z,0.70
2018-10-19T15:01:28.669Z,0.53
2018-10-19T15:04:03.138Z,0.93
2018-10-19T15:06:43.615Z,0.40
2018-10-19T15:09:19.431Z,0.47
2018-10-19T15:11:54.556Z,0.30
2018-10-19T15:14:30.344Z,0.50
2018-10-19T15:17:05.991Z,0.30
2018-10-19T15:19:49.517Z,0.50
2018-10-19T15:25:35.611Z,0.40
2018-10-19T15:28:13.262Z,0.50
2018-10-19T15:36:34.363Z,0.20
2018-10-19T15:39:10.735Z,0.30
2018-10-19T15:41:58.702Z,0.47
2018-10-19T15:44:32.599Z,0.50
2018-10-19T15:47:06.965Z,0.43
2018-10-19T15:49:45.253Z,0.60
2018-10-19T15:52:19.163Z,0.40
2018-10-19T15:54:53.290Z,0.50
2018-10-19T15:57:27.205Z,0.30
2018-10-19T16:00:01.653Z,0.40
2018-10-19T16:08:53.003Z,0.90
2018-10-19T16:11:40.947Z,1.07
2018-10-19T16:14:18.612Z,0.60
2018-10-19T16:21:27.989Z,0.40
2018-10-19T16:27:20.358Z,0.70
2018-10-19T16:29:55.048Z,0.80
2018-10-19T16:39:28.602Z,1.00
2018-10-19T16:42:04.361Z,1.00
2018-10-19T16:44:41.114Z,1.80
2018-10-19T16:47:17.076Z,1.50
2018-10-19T16:49:51.901Z,2.50
2018-10-19T16:52:26.750Z,2.10
2018-10-19T16:55:01.971Z,1.50
2018-10-19T16:57:38.134Z,1.13
2018-10-19T17:00:19.003Z,1.10
2018-10-19T17:02:54.917Z,2.40
2018-10-19T17:13:42.116Z,0.90
2018-10-19T17:16:28.946Z,2.43
2018-10-19T17:19:06.271Z,3.50
2018-10-19T17:21:46.585Z,2.70
2018-10-19T17:24:28.422Z,1.40
2018-10-19T17:27:11.176Z,1.13
2018-10-19T17:30:06.424Z,1.70
2018-10-19T17:32:46.778Z,1.90
2018-10-19T17:35:30.177Z,1.77
2018-10-19T17:38:08.525Z,1.80
2018-10-19T17:40:42.698Z,2.13
2018-10-19T17:46:10.770Z,1.93
2018-10-19T17:51:33.749Z,1.70
2018-10-19T17:54:09.884Z,1.73
2018-10-19T17:56:49.943Z,1.90
2018-10-19T17:59:24.446Z,1.80
2018-10-19T18:02:00.847Z,1.90
2018-10-19T18:04:35.269Z,1.70
2018-10-19T18:07:09.559Z,1.90
2018-10-19T18:09:54.664Z,1.83
2018-10-19T18:15:09.892Z,1.80
2018-10-19T18:17:56.490Z,2.00
2018-10-19T18:20:32.763Z,2.30
2018-10-19T18:23:11.043Z,2.63
2018-10-19T18:25:51.838Z,2.13
2018-10-19T18:32:14.109Z,2.10
2018-10-19T18:34:51.922Z,2.00
2018-10-19T18:37:46.532Z,1.77
2018-10-19T18:40:26.714Z,1.77
2018-10-19T18:43:08.630Z,1.70
2018-10-19T18:45:42.668Z,2.30
2018-10-19T18:48:17.233Z,1.90
2018-10-19T18:50:51.314Z,2.00
2018-10-19T18:53:25.272Z,1.97
2018-10-19T18:55:59.149Z,2.03
2018-10-19T18:58:33.178Z,2.57
2018-10-19T19:01:06.947Z,2.27
2018-10-19T19:03:40.951Z,2.00
2018-10-19T19:06:14.722Z,2.23
2018-10-19T19:08:48.494Z,2.10
2018-10-19T19:11:22.638Z,2.40
2018-10-19T19:13:57.750Z,2.10
2018-10-19T19:16:31.936Z,2.10
2018-10-19T19:19:05.893Z,2.40
2018-10-19T19:21:40.137Z,2.40
2018-10-19T19:24:19.371Z,2.40
2018-10-19T19:26:53.979Z,2.93
2018-10-19T19:29:27.884Z,2.80
2018-10-19T19:32:01.887Z,2.40
2018-10-19T19:34:36.067Z,3.07
2018-10-19T19:37:10.002Z,3.60
2018-10-19T19:39:44.147Z,3.50
2018-10-19T19:42:24.387Z,3.63
2018-10-19T19:44:58.964Z,3.70
2018-10-19T19:47:38.472Z,3.30
2018-10-19T19:50:12.599Z,2.80
2018-10-19T19:52:46.582Z,3.53
2018-10-19T19:55:21.378Z,3.67
2018-10-19T19:57:55.329Z,3.57
2018-10-19T20:00:30.184Z,3.87
2018-10-19T20:03:04.435Z,3.60
2018-10-19T20:05:39.341Z,4.00
2018-10-19T20:08:13.857Z,3.90
2018-10-19T20:10:47.934Z,4.20
2018-10-19T20:13:21.890Z,4.17
2018-10-19T20:15:56.198Z,3.97
2018-10-19T20:18:30.750Z,3.63
2018-10-19T20:21:05.305Z,4.13
2018-10-19T20:23:39.487Z,3.57
2018-10-19T20:26:13.706Z,3.57
2018-10-19T20:28:47.749Z,3.87
2018-10-19T20:31:22.707Z,3.47
2018-10-19T20:33:56.744Z,3.53
2018-10-19T20:36:30.932Z,3.23
2018-10-19T20:39:06.879Z,3.27
2018-10-19T20:41:40.986Z,3.20
2018-10-19T20:44:15.135Z,3.40
2018-10-19T20:46:49.953Z,3.57
2018-10-19T20:49:24.414Z,3.57
2018-10-19T20:51:59.303Z,3.07
2018-10-19T20:54:33.218Z,3.40
2018-10-19T20:57:07.217Z,3.10
2018-10-19T20:59:41.998Z,3.90
2018-10-19T21:02:16.693Z,3.77
2018-10-19T21:04:51.043Z,3.40
2018-10-19T21:07:25.006Z,3.60
2018-10-19T21:09:59.590Z,2.90
2018-10-19T21:12:34.667Z,3.00
2018-10-19T21:15:10.556Z,3.07
2018-10-19T21:17:44.699Z,2.97
2018-10-19T21:20:18.445Z,3.80
2018-10-19T21:22:52.260Z,3.33
2018-10-19T21:25:26.920Z,3.60
2018-10-19T21:28:00.810Z,3.30
2018-10-19T21:30:35.444Z,3.80
2018-10-19T21:33:09.957Z,3.40
2018-10-19T21:35:44.043Z,3.60
2018-10-19T21:38:18.004Z,3.27
2018-10-19T21:40:52.021Z,3.20
2018-10-19T21:43:26.136Z,3.17
2018-10-19T21:46:00.631Z,3.23
2018-10-19T21:48:34.728Z,3.43
2018-10-19T21:51:08.629Z,2.90
2018-10-19T21:53:43.237Z,2.90
2018-10-19T21:56:17.271Z,2.93
2018-10-19T21:58:51.539Z,3.00
2018-10-19T22:01:26.084Z,2.97
2018-10-19T22:04:00.461Z,3.13
2018-10-19T22:06:35.734Z,3.07
2018-10-19T22:09:11.518Z,3.27
2018-10-19T22:11:46.252Z,3.20
2018-10-19T22:14:20.215Z,2.87
2018-10-19T22:16:54.322Z,2.63
2018-10-19T22:19:28.234Z,2.50
2018-10-19T22:22:02.239Z,2.50
2018-10-19T22:24:36.189Z,2.37
2018-10-19T22:27:10.054Z,2.60
2018-10-19T22:29:43.968Z,2.40
2018-10-19T22:32:17.938Z,2.60
2018-10-19T22:34:51.959Z,2.60
2018-10-19T22:37:25.863Z,2.93
2018-10-19T22:39:59.892Z,3.00
2018-10-19T22:42:34.201Z,3.90
2018-10-19T22:45:09.718Z,4.47
2018-10-19T22:47:43.591Z,4.00
2018-10-19T22:50:17.486Z,3.10
2018-10-19T22:52:51.369Z,2.90
2018-10-19T22:55:25.241Z,2.73
2018-10-19T22:57:59.241Z,3.00
2018-10-19T23:00:33.695Z,2.50
2018-10-19T23:03:08.501Z,2.80
2018-10-19T23:05:42.543Z,3.33
2018-10-19T23:08:16.822Z,3.37
2018-10-19T23:10:51.615Z,2.77
2018-10-19T23:13:25.620Z,2.60
2018-10-19T23:15:59.526Z,2.20
2018-10-19T23:18:34.288Z,2.80
2018-10-19T23:21:10.302Z,2.53
2018-10-19T23:23:44.393Z,2.50
2018-10-19T23:26:18.189Z,2.77
2018-10-19T23:28:52.266Z,2.93
2018-10-19T23:31:26.801Z,2.50
2018-10-19T23:34:00.697Z,2.67
2018-10-19T23:36:34.633Z,2.70
2018-10-19T23:39:10.197Z,2.77
2018-10-19T23:41:44.245Z,3.17
2018-10-19T23:44:18.388Z,2.80
2018-10-19T23:46:52.270Z,2.60
2018-10-19T23:49:27.489Z,2.43
2018-10-19T23:52:02.325Z,3.10
2018-10-19T23:54:37.275Z,2.80
2018-10-19T23:57:12.265Z,2.90
2018-10-19T23:59:46.901Z,3.13
